Terminal Aerodrome Forecast
Issued by NWS

Home | Current Version | Previous Version | Text Only | Print | Product List | Glossary On
Versions: 1 2 3 4 5 6 7 8 9 10 11 12 13 14
000
FTUS43 KUNR 242320
TAFGCC
TAF
KGCC 242320Z 2500/2524 35011KT P6SM BKN080 OVC120
     FM250800 35006KT P6SM -SHRA BKN050 OVC100
     FM251200 05005KT P6SM SCT050 BKN100=

USA.gov is the U.S. government's official web portal to all federal, state and local government web resources and services.